createdAt,value
2022-08-05T00:00:54.599Z,23.36
2022-08-05T00:02:07.635Z,23.34
2022-08-05T00:03:15.487Z,23.33
2022-08-05T00:04:18.787Z,23.31
2022-08-05T00:06:01.458Z,23.30
2022-08-05T00:06:45.439Z,23.29
2022-08-05T00:08:00.336Z,23.28
2022-08-05T00:09:04.468Z,23.27
2022-08-05T00:10:15.911Z,23.25
2022-08-05T00:11:23.898Z,23.25
2022-08-05T00:12:33.609Z,23.24
2022-08-05T00:13:53.127Z,23.23
2022-08-05T00:14:56.179Z,23.23
2022-08-05T00:16:00.320Z,23.22
2022-08-05T00:17:04.446Z,23.22
2022-08-05T00:18:22.607Z,23.22
2022-08-05T00:19:33.776Z,23.20
2022-08-05T00:20:49.041Z,23.20
2022-08-05T00:21:52.078Z,23.20
2022-08-05T00:22:59.696Z,23.19
2022-08-05T00:24:10.590Z,23.19
2022-08-05T00:25:14.375Z,23.17
2022-08-05T00:26:20.011Z,23.17
2022-08-05T00:27:23.010Z,23.17
2022-08-05T00:28:39.165Z,23.16
2022-08-05T00:29:42.972Z,23.16
2022-08-05T00:30:46.379Z,23.16
2022-08-05T00:32:13.039Z,23.15
2022-08-05T00:34:54.018Z,23.13
2022-08-05T00:35:04.686Z,23.10
2022-08-05T00:36:15.209Z,23.09
2022-08-05T00:37:50.449Z,23.07
2022-08-05T00:38:51.811Z,23.06
2022-08-05T00:39:58.812Z,23.05
2022-08-05T00:41:02.117Z,23.04
2022-08-05T00:42:05.157Z,23.02
2022-08-05T00:43:08.019Z,23.01
2022-08-05T00:44:10.927Z,23.00
2022-08-05T00:45:14.335Z,22.98
2022-08-05T00:46:17.230Z,22.96
2022-08-05T00:47:56.367Z,22.93
2022-08-05T00:49:00.493Z,22.90
2022-08-05T00:50:03.605Z,22.88
2022-08-05T00:51:51.139Z,22.86
2022-08-05T00:52:31.944Z,22.83
2022-08-05T00:54:00.206Z,22.80
2022-08-05T00:55:05.008Z,22.76
2022-08-05T00:56:08.451Z,22.74
2022-08-05T00:57:12.003Z,22.72
2022-08-05T00:58:17.012Z,22.69
2022-08-05T00:59:22.395Z,22.67
2022-08-05T01:00:26.100Z,22.63
2022-08-05T01:01:42.533Z,22.60
2022-08-05T01:02:51.292Z,22.56
2022-08-05T01:03:55.950Z,22.52
2022-08-05T01:04:59.220Z,22.49
2022-08-05T01:06:02.590Z,22.47
2022-08-05T01:07:06.863Z,22.44
2022-08-05T01:08:42.581Z,22.42
2022-08-05T01:09:39.402Z,22.37
2022-08-05T01:10:58.099Z,22.33
2022-08-05T01:12:18.242Z,22.29
2022-08-05T01:13:27.168Z,22.24
2022-08-05T01:14:35.251Z,22.21
2022-08-05T01:15:47.864Z,22.18
2022-08-05T01:16:54.743Z,22.14
2022-08-05T01:18:01.788Z,22.11
2022-08-05T01:19:20.236Z,22.07
2022-08-05T01:20:41.412Z,22.03
2022-08-05T01:22:02.946Z,21.99
2022-08-05T01:23:14.365Z,21.95
2022-08-05T01:24:45.876Z,21.90
2022-08-05T01:25:53.803Z,21.86
2022-08-05T01:27:17.533Z,21.82
2022-08-05T01:28:22.518Z,21.77
2022-08-05T01:29:29.484Z,21.74
2022-08-05T01:32:00.795Z,21.67
2022-08-05T01:33:08.281Z,21.66
2022-08-05T01:34:21.618Z,21.63
2022-08-05T01:35:51.318Z,21.60
2022-08-05T01:37:00.458Z,21.57
2022-08-05T01:38:04.368Z,21.55
2022-08-05T01:39:07.531Z,21.53
2022-08-05T01:40:12.690Z,21.51
2022-08-05T01:41:17.525Z,21.49
2022-08-05T01:42:25.796Z,21.47
2022-08-05T01:43:30.737Z,21.45
2022-08-05T01:44:36.434Z,21.42
2022-08-05T01:45:43.071Z,21.39
2022-08-05T01:46:46.910Z,21.38
2022-08-05T01:47:54.480Z,21.36
2022-08-05T01:49:01.016Z,21.34
2022-08-05T01:50:29.641Z,21.32
2022-08-05T01:51:35.477Z,21.31
2022-08-05T01:52:42.466Z,21.29
2022-08-05T01:53:57.663Z,21.27
2022-08-05T01:55:04.480Z,21.26
2022-08-05T01:56:09.532Z,21.24
2022-08-05T01:58:10.638Z,21.23
2022-08-05T01:58:44.685Z,21.23
2022-08-05T01:59:54.980Z,21.21
2022-08-05T02:00:59.601Z,21.20
2022-08-05T02:02:03.024Z,21.19
2022-08-05T02:03:31.531Z,21.18
2022-08-05T02:04:37.173Z,21.18
2022-08-05T02:05:45.181Z,21.18
2022-08-05T02:06:51.240Z,21.17
2022-08-05T02:07:59.797Z,21.16
2022-08-05T02:09:05.672Z,21.15
2022-08-05T02:10:10.426Z,21.15
2022-08-05T02:11:23.855Z,21.13
2022-08-05T02:12:42.607Z,21.12
2022-08-05T02:13:53.466Z,21.12
2022-08-05T02:15:19.892Z,21.10
2022-08-05T02:16:23.037Z,21.10
2022-08-05T02:18:27.885Z,21.09
2022-08-05T02:18:59.019Z,21.08
2022-08-05T02:20:03.455Z,21.08
2022-08-05T02:21:14.717Z,21.08
2022-08-05T02:22:25.796Z,21.07
2022-08-05T02:23:33.617Z,21.07
2022-08-05T02:24:38.149Z,21.06
2022-08-05T02:25:49.699Z,21.05
2022-08-05T02:26:56.219Z,21.05
2022-08-05T02:28:00.584Z,21.04
2022-08-05T02:29:04.739Z,21.03
2022-08-05T02:30:09.093Z,21.03
2022-08-05T02:31:16.646Z,21.02
2022-08-05T02:32:30.938Z,21.02
2022-08-05T02:33:38.850Z,21.01
2022-08-05T02:34:43.798Z,21.01
2022-08-05T02:36:01.341Z,21.01
2022-08-05T02:37:08.180Z,21.00
2022-08-05T02:38:13.332Z,21.00
2022-08-05T02:39:23.171Z,21.00
2022-08-05T02:40:27.551Z,21.00
2022-08-05T02:41:43.361Z,21.00
2022-08-05T02:42:55.728Z,20.99
2022-08-05T02:44:02.243Z,20.99
2022-08-05T02:45:10.259Z,20.99
2022-08-05T02:46:16.482Z,20.99
2022-08-05T02:47:21.040Z,20.98
2022-08-05T02:48:29.070Z,20.97
2022-08-05T02:49:40.368Z,20.97
2022-08-05T02:50:47.366Z,20.96
2022-08-05T02:52:03.025Z,20.96
2022-08-05T02:53:11.791Z,20.96
2022-08-05T02:54:34.856Z,20.96
2022-08-05T02:55:54.942Z,20.96
2022-08-05T02:57:03.094Z,20.95
2022-08-05T02:58:11.015Z,20.94
2022-08-05T02:59:17.339Z,20.94
2022-08-05T03:00:21.612Z,20.94
2022-08-05T03:01:25.614Z,20.94
2022-08-05T03:02:33.993Z,20.94
2022-08-05T03:04:04.391Z,20.93
2022-08-05T03:05:04.167Z,20.93
2022-08-05T03:06:55.754Z,20.93
2022-08-05T03:08:01.604Z,20.93
2022-08-05T03:08:55.026Z,20.92
2022-08-05T03:09:59.478Z,20.92
2022-08-05T03:11:57.149Z,20.92
2022-08-05T03:12:31.160Z,20.92
2022-08-05T03:13:51.731Z,20.91
2022-08-05T03:14:57.355Z,20.91
2022-08-05T03:16:00.250Z,20.91
2022-08-05T03:17:07.366Z,20.90
2022-08-05T03:18:12.326Z,20.89
2022-08-05T03:19:33.015Z,20.89
2022-08-05T03:20:38.274Z,20.88
2022-08-05T03:21:49.624Z,20.88
2022-08-05T03:22:57.276Z,20.86
2022-08-05T03:24:01.063Z,20.87
2022-08-05T03:26:03.418Z,20.87
2022-08-05T03:26:32.281Z,20.86
2022-08-05T03:27:57.971Z,20.85
2022-08-05T03:28:59.125Z,20.85
2022-08-05T03:30:07.746Z,20.84
2022-08-05T03:31:55.360Z,20.84
2022-08-05T03:32:35.994Z,20.84
2022-08-05T03:33:52.693Z,20.85
2022-08-05T03:34:56.271Z,20.85
2022-08-05T03:35:59.733Z,20.85
2022-08-05T03:37:03.675Z,20.86
2022-08-05T03:38:06.850Z,20.87
2022-08-05T03:39:13.026Z,20.87
2022-08-05T03:40:31.137Z,20.88
2022-08-05T03:41:45.164Z,20.88
2022-08-05T03:42:52.441Z,20.89
2022-08-05T03:44:08.335Z,20.89
2022-08-05T03:45:21.586Z,20.91
2022-08-05T03:46:26.797Z,20.92
2022-08-05T03:47:35.390Z,20.93
2022-08-05T03:48:45.362Z,20.94
2022-08-05T03:49:51.449Z,20.95
2022-08-05T03:52:35.374Z,20.96
2022-08-05T03:54:59.099Z,20.98
2022-08-05T03:55:54.083Z,20.99
2022-08-05T03:56:04.332Z,21.02
2022-08-05T03:57:16.695Z,21.04
2022-08-05T03:58:22.960Z,21.06
2022-08-05T03:59:47.080Z,21.07
2022-08-05T04:01:00.089Z,21.09
2022-08-05T04:02:04.096Z,21.10
2022-08-05T04:03:26.621Z,21.12
2022-08-05T04:04:32.830Z,21.14
2022-08-05T04:05:36.330Z,21.16
2022-08-05T04:06:47.648Z,21.17
2022-08-05T04:07:58.295Z,21.20
2022-08-05T04:09:02.597Z,21.22
2022-08-05T04:10:07.365Z,21.24
2022-08-05T04:11:11.193Z,21.25
2022-08-05T04:12:24.759Z,21.27
2022-08-05T04:13:49.837Z,21.29
2022-08-05T04:14:51.634Z,21.32
2022-08-05T04:16:04.434Z,21.34
2022-08-05T04:17:08.876Z,21.36
2022-08-05T04:18:20.573Z,21.38
2022-08-05T04:19:25.732Z,21.41
2022-08-05T04:20:28.661Z,21.43
2022-08-05T04:22:09.509Z,21.45
2022-08-05T04:22:54.977Z,21.48
2022-08-05T04:24:05.998Z,21.49
2022-08-05T04:25:11.962Z,21.50
2022-08-05T04:26:18.195Z,21.49
2022-08-05T04:27:41.662Z,21.51
2022-08-05T04:28:51.671Z,21.55
2022-08-05T04:29:55.199Z,21.56
2022-08-05T04:30:58.218Z,21.58
2022-08-05T04:32:03.939Z,21.60
2022-08-05T04:33:06.931Z,21.61
2022-08-05T04:34:18.330Z,21.63
2022-08-05T04:36:10.945Z,21.65
2022-08-05T04:36:57.388Z,21.68
2022-08-05T04:38:02.603Z,21.70
2022-08-05T04:39:09.626Z,21.75
2022-08-05T04:40:14.421Z,21.77
2022-08-05T04:41:22.800Z,21.80
2022-08-05T04:42:40.049Z,21.83
2022-08-05T04:43:48.042Z,21.87
2022-08-05T04:44:55.142Z,21.89
2022-08-05T04:45:58.041Z,21.93
2022-08-05T04:47:09.933Z,21.96
2022-08-05T04:48:18.525Z,22.00
2022-08-05T04:49:38.446Z,22.05
2022-08-05T04:51:03.750Z,22.08
2022-08-05T04:52:15.093Z,22.11
2022-08-05T04:53:18.675Z,22.14
2022-08-05T04:54:22.357Z,22.18
2022-08-05T04:56:15.086Z,22.20
2022-08-05T04:56:50.103Z,22.24
2022-08-05T04:57:56.635Z,22.28
2022-08-05T04:58:59.691Z,22.32
2022-08-05T05:00:23.314Z,22.37
2022-08-05T05:02:08.117Z,22.41
2022-08-05T05:02:50.575Z,22.45
2022-08-05T05:03:53.668Z,22.48
2022-08-05T05:05:01.623Z,22.52
2022-08-05T05:06:40.591Z,22.56
2022-08-05T05:07:29.722Z,22.60
2022-08-05T05:08:36.577Z,22.62
2022-08-05T05:09:46.014Z,22.65
2022-08-05T05:10:56.156Z,22.69
2022-08-05T05:12:02.928Z,22.72
2022-08-05T05:13:06.163Z,22.75
2022-08-05T05:14:10.551Z,22.78
2022-08-05T05:15:56.371Z,22.81
2022-08-05T05:16:42.349Z,22.86
2022-08-05T05:17:56.444Z,22.89
2022-08-05T05:19:18.776Z,22.95
2022-08-05T05:20:22.637Z,23.01
2022-08-05T05:21:33.118Z,23.07
2022-08-05T05:22:36.206Z,23.13
2022-08-05T05:24:04.075Z,23.22
2022-08-05T05:25:16.600Z,23.29
2022-08-05T05:26:28.122Z,23.38
2022-08-05T05:27:45.911Z,23.48
2022-08-05T05:28:51.771Z,23.57
2022-08-05T05:30:04.971Z,23.63
2022-08-05T05:31:08.935Z,23.70
2022-08-05T05:32:12.555Z,23.74
2022-08-05T05:33:23.317Z,23.80
2022-08-05T05:34:27.321Z,23.85
2022-08-05T05:35:38.133Z,23.88
2022-08-05T05:36:42.732Z,23.92
2022-08-05T05:37:59.558Z,23.97
2022-08-05T05:39:04.401Z,24.03
2022-08-05T05:40:07.844Z,24.05
2022-08-05T05:41:10.894Z,24.09
2022-08-05T05:42:15.150Z,24.14
2022-08-05T05:43:27.630Z,24.21
2022-08-05T05:44:44.405Z,24.27
2022-08-05T05:45:49.265Z,24.31
2022-08-05T05:46:52.177Z,24.34
2022-08-05T05:48:07.088Z,24.35
2022-08-05T05:49:22.965Z,24.39
2022-08-05T05:50:26.451Z,24.41
2022-08-05T05:51:29.424Z,24.43
2022-08-05T05:52:52.927Z,24.47
2022-08-05T05:53:59.491Z,24.48
2022-08-05T05:55:07.532Z,24.51
2022-08-05T05:56:16.824Z,24.54
2022-08-05T05:57:51.885Z,24.61
2022-08-05T05:58:55.483Z,24.71
2022-08-05T05:59:58.746Z,24.78
2022-08-05T06:01:12.798Z,24.83
2022-08-05T06:02:32.727Z,24.85
2022-08-05T06:04:00.833Z,24.83
2022-08-05T06:05:10.453Z,24.80
2022-08-05T06:06:19.919Z,24.82
2022-08-05T06:07:41.353Z,24.84
2022-08-05T06:08:49.228Z,24.88
2022-08-05T06:10:01.515Z,24.91
2022-08-05T06:11:08.838Z,24.95
2022-08-05T06:12:16.572Z,24.98
2022-08-05T06:13:22.552Z,24.98
2022-08-05T06:14:27.891Z,24.99
2022-08-05T06:16:30.644Z,24.99
2022-08-05T06:16:54.665Z,25.01
2022-08-05T06:18:00.083Z,25.03
2022-08-05T06:19:05.924Z,25.04
2022-08-05T06:20:21.432Z,25.06
2022-08-05T06:21:24.782Z,25.08
2022-08-05T06:22:40.535Z,25.14
2022-08-05T06:23:45.537Z,25.20
2022-08-05T06:24:52.751Z,25.29
2022-08-05T06:26:13.360Z,25.38
2022-08-05T06:28:10.932Z,25.45
2022-08-05T06:28:42.154Z,25.47
2022-08-05T06:29:51.926Z,25.48
2022-08-05T06:31:11.312Z,25.51
2022-08-05T06:32:28.635Z,25.54
2022-08-05T06:33:52.258Z,25.57
2022-08-05T06:34:57.207Z,25.58
2022-08-05T06:36:07.556Z,25.56
2022-08-05T06:37:13.342Z,25.56
2022-08-05T06:38:17.726Z,25.58
2022-08-05T06:39:39.552Z,25.62
2022-08-05T06:40:44.878Z,25.64
2022-08-05T06:41:49.424Z,25.68
2022-08-05T06:42:52.895Z,25.71
2022-08-05T06:44:00.271Z,25.74
2022-08-05T06:45:05.494Z,25.76
2022-08-05T06:46:11.922Z,25.79
2022-08-05T06:47:30.110Z,25.81
2022-08-05T06:48:52.816Z,25.88
2022-08-05T06:50:05.181Z,25.95
2022-08-05T06:51:09.606Z,26.00
2022-08-05T06:52:37.982Z,26.04
2022-08-05T06:53:39.422Z,26.04
2022-08-05T06:54:42.458Z,26.02
2022-08-05T06:55:46.030Z,26.03
2022-08-05T06:56:55.118Z,26.03
2022-08-05T06:58:29.580Z,26.06
2022-08-05T06:59:38.801Z,26.12
2022-08-05T07:00:45.513Z,26.15
2022-08-05T07:01:50.452Z,26.15
2022-08-05T07:02:56.108Z,26.17
2022-08-05T07:03:59.445Z,26.19
2022-08-05T07:05:02.468Z,26.23
2022-08-05T07:06:14.135Z,26.29
2022-08-05T07:07:24.158Z,26.34
2022-08-05T07:08:47.660Z,26.40
2022-08-05T07:09:55.524Z,26.45
2022-08-05T07:11:01.929Z,26.50
2022-08-05T07:12:05.092Z,26.53
2022-08-05T07:13:54.283Z,26.59
2022-08-05T07:15:09.473Z,26.66
2022-08-05T07:17:56.977Z,26.74
2022-08-05T07:18:01.904Z,26.79
2022-08-05T07:19:11.177Z,26.83
2022-08-05T07:20:37.037Z,26.86
2022-08-05T07:22:00.230Z,26.88
2022-08-05T07:23:04.540Z,26.90
2022-08-05T07:24:11.198Z,26.91
2022-08-05T07:25:54.190Z,26.91
2022-08-05T07:26:37.547Z,26.94
2022-08-05T07:27:57.543Z,26.98
2022-08-05T07:29:03.758Z,27.03
2022-08-05T07:30:27.212Z,27.08
2022-08-05T07:31:40.952Z,27.13
2022-08-05T07:32:53.557Z,27.16
2022-08-05T07:33:56.542Z,27.20
2022-08-05T07:36:01.554Z,27.24
2022-08-05T07:36:30.305Z,27.29
2022-08-05T07:37:36.179Z,27.32
2022-08-05T07:38:44.195Z,27.33
2022-08-05T07:40:26.887Z,27.38
2022-08-05T07:42:07.409Z,27.42
2022-08-05T07:42:36.391Z,27.42
2022-08-05T07:43:39.417Z,27.44
2022-08-05T07:44:46.223Z,27.47
2022-08-05T07:45:57.555Z,27.49
2022-08-05T07:47:01.463Z,27.52
2022-08-05T07:48:11.288Z,27.57
2022-08-05T07:49:16.317Z,27.60
2022-08-05T07:50:28.872Z,27.62
2022-08-05T07:51:40.942Z,27.65
2022-08-05T07:52:57.250Z,27.70
2022-08-05T07:54:01.766Z,27.74
2022-08-05T07:55:16.011Z,27.78
2022-08-05T07:56:59.842Z,27.83
2022-08-05T07:58:02.430Z,27.87
2022-08-05T07:59:08.590Z,27.88
2022-08-05T08:00:14.410Z,27.90
2022-08-05T08:01:17.987Z,27.92
2022-08-05T08:02:26.700Z,27.95
2022-08-05T08:03:44.290Z,27.99
2022-08-05T08:04:49.198Z,28.02
2022-08-05T08:05:52.650Z,28.07
2022-08-05T08:06:56.150Z,28.12
2022-08-05T08:08:00.720Z,28.16
2022-08-05T08:09:03.930Z,28.19
2022-08-05T08:10:08.823Z,28.22
2022-08-05T08:11:15.865Z,28.25
2022-08-05T08:12:35.083Z,28.30
2022-08-05T08:13:49.298Z,28.35
2022-08-05T08:15:04.345Z,28.39
2022-08-05T08:16:35.000Z,28.43
2022-08-05T08:17:31.017Z,28.47
2022-08-05T08:18:34.007Z,28.50
2022-08-05T08:20:10.719Z,28.55
2022-08-05T08:21:03.564Z,28.63
2022-08-05T08:22:09.018Z,28.70
2022-08-05T08:24:02.727Z,28.75
2022-08-05T08:24:51.848Z,28.82
2022-08-05T08:26:00.349Z,28.89
2022-08-05T08:27:07.031Z,28.96
2022-08-05T08:28:18.368Z,29.02
2022-08-05T08:30:04.059Z,29.10
2022-08-05T08:30:47.817Z,29.18
2022-08-05T08:31:53.278Z,29.23
2022-08-05T08:32:56.242Z,29.27
2022-08-05T08:34:00.209Z,29.32
2022-08-05T08:35:03.321Z,29.36
2022-08-05T08:37:31.012Z,29.43
2022-08-05T08:38:39.535Z,29.46
2022-08-05T08:39:49.501Z,29.49
2022-08-05T08:40:53.094Z,29.54
2022-08-05T08:42:02.259Z,29.60
2022-08-05T08:44:54.757Z,29.65
2022-08-05T08:45:16.625Z,29.69
2022-08-05T08:45:56.731Z,29.74
2022-08-05T08:47:01.409Z,29.77
2022-08-05T08:48:12.475Z,29.77
2022-08-05T08:50:22.656Z,29.77
2022-08-05T08:51:22.134Z,29.76
2022-08-05T08:52:19.795Z,29.75
2022-08-05T08:53:24.852Z,29.75
2022-08-05T08:54:30.802Z,29.74
2022-08-05T08:56:03.919Z,29.75
2022-08-05T08:56:59.317Z,29.74
2022-08-05T08:58:02.713Z,29.74
2022-08-05T08:59:14.648Z,29.73
2022-08-05T09:00:22.827Z,29.71
2022-08-05T09:01:26.214Z,29.69
2022-08-05T09:02:29.517Z,29.66
2022-08-05T09:03:39.455Z,29.66
2022-08-05T09:05:16.346Z,29.66
2022-08-05T09:06:13.066Z,29.67
2022-08-05T09:07:29.195Z,29.70
2022-08-05T09:08:42.563Z,29.75
2022-08-05T09:09:47.506Z,29.77
2022-08-05T09:10:53.298Z,29.79
2022-08-05T09:12:01.270Z,29.82
2022-08-05T09:13:15.450Z,29.89
2022-08-05T09:14:56.855Z,29.94
2022-08-05T09:15:41.853Z,30.00
2022-08-05T09:16:48.857Z,30.05
2022-08-05T09:17:53.063Z,30.10
2022-08-05T09:18:56.163Z,30.16
2022-08-05T09:20:05.471Z,30.20
2022-08-05T09:21:11.619Z,30.24
2022-08-05T09:22:31.923Z,30.28
2022-08-05T09:23:43.622Z,30.31
2022-08-05T09:25:13.653Z,30.31
2022-08-05T09:26:32.326Z,30.32
2022-08-05T09:28:05.019Z,30.34
2022-08-05T09:29:04.592Z,30.41
2022-08-05T09:30:07.973Z,30.44
2022-08-05T09:31:43.534Z,30.48
2022-08-05T09:32:46.502Z,30.50
2022-08-05T09:33:55.090Z,30.55
2022-08-05T09:35:02.588Z,30.58
2022-08-05T09:36:11.791Z,30.59
2022-08-05T09:38:18.484Z,30.62
2022-08-05T09:38:59.748Z,30.62
2022-08-05T09:40:03.446Z,30.63
2022-08-05T09:41:08.728Z,30.66
2022-08-05T09:42:17.400Z,30.67
2022-08-05T09:43:28.179Z,30.66
2022-08-05T09:44:49.466Z,30.67
2022-08-05T09:46:06.525Z,30.70
2022-08-05T09:47:15.460Z,30.75
2022-08-05T09:48:29.486Z,30.81
2022-08-05T09:50:01.375Z,30.87
2022-08-05T09:50:58.137Z,30.93
2022-08-05T09:52:16.499Z,30.99
2022-08-05T09:53:25.803Z,31.05
2022-08-05T09:54:35.488Z,31.10
2022-08-05T09:55:58.138Z,31.14
2022-08-05T09:57:02.025Z,31.19
2022-08-05T09:58:12.457Z,31.22
2022-08-05T09:59:17.515Z,31.23
2022-08-05T10:00:24.649Z,31.24
2022-08-05T10:01:31.724Z,31.25
2022-08-05T10:02:36.742Z,31.26
2022-08-05T10:03:58.904Z,31.28
2022-08-05T10:05:08.010Z,31.29
2022-08-05T10:06:15.500Z,31.30
2022-08-05T10:07:20.847Z,31.32
2022-08-05T10:08:42.368Z,31.37
2022-08-05T10:10:13.939Z,31.42
2022-08-05T10:11:17.944Z,31.44
2022-08-05T10:12:33.676Z,31.45
2022-08-05T10:13:47.861Z,31.46
2022-08-05T10:14:54.323Z,31.46
2022-08-05T10:15:58.666Z,31.47
2022-08-05T10:17:36.819Z,31.49
2022-08-05T10:18:38.515Z,31.52
2022-08-05T10:20:04.223Z,31.55
2022-08-05T10:21:11.852Z,31.60
2022-08-05T10:22:29.706Z,31.63
2022-08-05T10:23:55.209Z,31.65
2022-08-05T10:24:56.402Z,31.67
2022-08-05T10:26:00.958Z,31.69
2022-08-05T10:27:04.202Z,31.70
2022-08-05T10:28:17.074Z,31.72
2022-08-05T10:29:24.030Z,31.76
2022-08-05T10:32:49.269Z,31.83
2022-08-05T10:32:54.223Z,31.90
2022-08-05T10:33:35.256Z,31.96
2022-08-05T10:34:40.698Z,32.02
2022-08-05T10:35:45.428Z,32.07
2022-08-05T10:36:50.631Z,32.16
2022-08-05T10:37:54.981Z,32.24
2022-08-05T10:39:05.270Z,32.31
2022-08-05T10:40:34.980Z,32.37
2022-08-05T10:42:08.156Z,32.46
2022-08-05T10:43:14.731Z,32.55
2022-08-05T10:44:19.068Z,32.64
2022-08-05T10:45:41.890Z,32.73
2022-08-05T10:46:46.886Z,32.79
2022-08-05T10:48:29.681Z,32.83
2022-08-05T10:49:17.679Z,32.91
2022-08-05T10:50:36.589Z,33.00
2022-08-05T10:51:48.675Z,33.05
2022-08-05T10:53:02.563Z,33.05
2022-08-05T10:54:31.096Z,33.04
2022-08-05T10:55:38.484Z,32.98
2022-08-05T10:56:58.499Z,32.94
2022-08-05T10:58:09.534Z,32.93
2022-08-05T11:00:04.398Z,32.98
2022-08-05T11:00:55.330Z,33.02
2022-08-05T11:02:06.978Z,33.01
2022-08-05T11:03:24.981Z,33.01
2022-08-05T11:04:30.752Z,33.07
2022-08-05T11:05:34.474Z,33.13
2022-08-05T11:06:58.436Z,33.13
2022-08-05T11:08:27.572Z,33.13
2022-08-05T11:09:45.770Z,33.11
2022-08-05T11:11:01.132Z,33.08
2022-08-05T11:12:26.630Z,33.03
2022-08-05T11:13:57.655Z,33.04
2022-08-05T11:15:20.502Z,33.04
2022-08-05T11:16:33.807Z,33.05
2022-08-05T11:17:59.228Z,33.07
2022-08-05T11:20:10.821Z,33.12
2022-08-05T11:20:46.166Z,33.28
2022-08-05T11:21:49.758Z,33.35
2022-08-05T11:22:54.842Z,33.36
2022-08-05T11:24:14.814Z,33.37
2022-08-05T11:26:05.322Z,33.44
2022-08-05T11:27:17.089Z,33.55
2022-08-05T11:28:20.014Z,33.66
2022-08-05T11:29:40.288Z,33.78
2022-08-05T11:31:12.335Z,33.92
2022-08-05T11:32:35.323Z,34.11
2022-08-05T11:33:46.062Z,34.20
2022-08-05T11:34:54.096Z,34.29
2022-08-05T11:36:08.779Z,34.38
2022-08-05T11:38:29.841Z,34.53
2022-08-05T11:38:57.866Z,34.63
2022-08-05T11:40:03.627Z,34.67
2022-08-05T11:41:56.235Z,34.74
2022-08-05T11:42:41.206Z,34.85
2022-08-05T11:44:05.933Z,34.91
2022-08-05T11:45:26.766Z,35.03
2022-08-05T11:47:09.422Z,35.15
2022-08-05T11:48:07.711Z,35.33
2022-08-05T11:49:15.602Z,35.55
2022-08-05T11:50:19.208Z,35.72
2022-08-05T11:51:44.078Z,35.87
2022-08-05T11:52:49.456Z,35.99
2022-08-05T11:53:53.816Z,36.07
2022-08-05T11:55:07.596Z,36.13
2022-08-05T11:56:13.879Z,36.19
2022-08-05T11:57:24.420Z,36.23
2022-08-05T11:58:30.279Z,36.30
2022-08-05T11:59:49.521Z,36.43
2022-08-05T12:01:00.855Z,36.58
2022-08-05T12:02:23.669Z,36.59
2022-08-05T12:03:31.541Z,36.56
2022-08-05T12:04:38.088Z,36.60
2022-08-05T12:05:46.129Z,36.69
2022-08-05T12:06:49.223Z,36.84
2022-08-05T12:08:10.444Z,36.99
2022-08-05T12:09:19.959Z,37.13
2022-08-05T12:10:42.840Z,37.37
2022-08-05T12:11:48.685Z,37.58
2022-08-05T12:12:59.942Z,37.66
2022-08-05T12:14:06.820Z,37.74
2022-08-05T12:15:19.156Z,37.84
2022-08-05T12:16:40.421Z,38.02
2022-08-05T12:18:03.832Z,38.20
2022-08-05T12:20:27.016Z,38.40
2022-08-05T12:20:38.783Z,38.46
2022-08-05T12:21:49.210Z,38.45
2022-08-05T12:22:52.441Z,38.46
2022-08-05T12:24:04.547Z,38.52
2022-08-05T12:25:09.076Z,38.54
2022-08-05T12:26:17.262Z,38.59
2022-08-05T12:27:25.541Z,38.69
2022-08-05T12:28:31.442Z,38.82
2022-08-05T12:29:37.976Z,38.97
2022-08-05T12:30:46.042Z,39.11
2022-08-05T12:31:53.023Z,39.33
2022-08-05T12:32:58.737Z,39.64
2022-08-05T12:34:20.256Z,40.00
2022-08-05T12:35:24.919Z,40.34
2022-08-05T12:36:43.892Z,40.61
2022-08-05T12:37:47.107Z,40.66
2022-08-05T12:38:51.341Z,40.68
2022-08-05T12:39:56.770Z,40.79
2022-08-05T12:41:12.282Z,40.91
2022-08-05T12:42:17.686Z,41.03
2022-08-05T12:43:21.282Z,41.11
2022-08-05T12:44:33.455Z,41.16
2022-08-05T12:45:48.286Z,41.34
2022-08-05T12:46:54.906Z,41.53
2022-08-05T12:48:01.752Z,41.61
2022-08-05T12:49:25.497Z,41.70
2022-08-05T12:50:30.831Z,41.88
2022-08-05T12:52:14.354Z,42.05
2022-08-05T12:53:15.674Z,42.22
2022-08-05T12:54:23.361Z,42.40
2022-08-05T12:55:33.000Z,42.59
2022-08-05T12:56:41.895Z,42.77
2022-08-05T12:58:49.831Z,42.84
2022-08-05T12:59:13.821Z,43.01
2022-08-05T13:02:00.554Z,43.13
2022-08-05T13:02:02.519Z,43.13
2022-08-05T13:03:08.073Z,43.15
2022-08-05T13:04:20.837Z,43.13
2022-08-05T13:05:24.970Z,43.10
2022-08-05T13:06:41.099Z,43.05
2022-08-05T13:07:59.981Z,42.87
2022-08-05T13:09:08.702Z,42.47
2022-08-05T13:10:19.869Z,41.97
2022-08-05T13:12:03.233Z,41.80
2022-08-05T13:12:57.730Z,41.83
2022-08-05T13:14:06.171Z,41.84
2022-08-05T13:15:18.064Z,41.76
2022-08-05T13:16:28.161Z,41.67
2022-08-05T13:17:41.754Z,41.76
2022-08-05T13:18:52.536Z,41.94
2022-08-05T13:20:00.969Z,42.09
2022-08-05T13:21:04.149Z,42.24
2022-08-05T13:22:07.513Z,42.43
2022-08-05T13:23:15.178Z,42.66
2022-08-05T13:24:27.809Z,42.84
2022-08-05T13:25:51.897Z,43.14
2022-08-05T13:27:02.815Z,43.36
2022-08-05T13:28:06.922Z,43.50
2022-08-05T13:29:19.121Z,43.70
2022-08-05T13:30:39.134Z,43.97
2022-08-05T13:32:04.971Z,44.12
2022-08-05T13:33:06.065Z,44.08
2022-08-05T13:34:24.241Z,44.18
2022-08-05T13:35:43.238Z,44.32
2022-08-05T13:36:52.176Z,44.45
2022-08-05T13:37:55.356Z,44.47
2022-08-05T13:38:59.005Z,44.56
2022-08-05T13:40:16.189Z,44.59
2022-08-05T13:41:25.713Z,44.52
2022-08-05T13:42:39.615Z,44.31
2022-08-05T13:43:54.743Z,44.08
2022-08-05T13:44:58.116Z,43.87
2022-08-05T13:46:02.457Z,43.76
2022-08-05T13:47:09.099Z,43.64
2022-08-05T13:48:57.792Z,43.53
2022-08-05T13:49:35.508Z,43.47
2022-08-05T13:50:38.576Z,43.37
2022-08-05T13:51:46.371Z,43.26
2022-08-05T13:52:50.117Z,43.09
2022-08-05T13:53:57.844Z,43.01
2022-08-05T13:55:01.339Z,42.89
2022-08-05T13:56:05.366Z,42.66
2022-08-05T13:57:22.529Z,42.36
2022-08-05T13:58:30.810Z,42.08
2022-08-05T13:59:34.457Z,42.00
2022-08-05T14:00:38.783Z,42.01
2022-08-05T14:01:56.318Z,42.01
2022-08-05T14:03:01.009Z,42.12
2022-08-05T14:04:26.611Z,42.21
2022-08-05T14:06:04.921Z,42.35
2022-08-05T14:06:58.892Z,42.45
2022-08-05T14:08:20.707Z,42.71
2022-08-05T14:09:24.659Z,42.86
2022-08-05T14:10:33.035Z,42.87
2022-08-05T14:12:03.920Z,42.84
2022-08-05T14:13:02.990Z,42.90
2022-08-05T14:14:06.277Z,42.98
2022-08-05T14:16:04.769Z,43.10
2022-08-05T14:16:32.590Z,43.16
2022-08-05T14:17:36.673Z,43.18
2022-08-05T14:18:39.604Z,43.27
2022-08-05T14:19:56.147Z,43.38
2022-08-05T14:21:00.227Z,43.36
2022-08-05T14:22:23.492Z,43.30
2022-08-05T14:23:36.679Z,43.31
2022-08-05T14:24:40.291Z,43.33
2022-08-05T14:25:44.968Z,43.43
2022-08-05T14:27:08.423Z,43.50
2022-08-05T14:28:26.263Z,43.69
2022-08-05T14:29:31.329Z,43.93
2022-08-05T14:30:34.511Z,44.12
2022-08-05T14:32:03.703Z,44.15
2022-08-05T14:33:02.066Z,43.99
2022-08-05T14:34:06.707Z,43.88
2022-08-05T14:35:15.001Z,43.85
2022-08-05T14:36:21.428Z,43.92
2022-08-05T14:37:42.161Z,43.96
2022-08-05T14:38:47.981Z,43.96
2022-08-05T14:39:56.916Z,44.08
2022-08-05T14:41:05.957Z,44.31
2022-08-05T14:42:20.927Z,44.48
2022-08-05T14:43:58.833Z,44.66
2022-08-05T14:44:48.362Z,44.91
2022-08-05T14:45:51.846Z,45.00
2022-08-05T14:46:56.531Z,44.98
2022-08-05T14:48:05.065Z,44.95
2022-08-05T14:49:09.430Z,44.88
2022-08-05T14:50:18.146Z,44.85
2022-08-05T14:51:22.120Z,44.80
2022-08-05T14:52:50.496Z,44.74
2022-08-05T14:54:26.564Z,44.66
2022-08-05T14:55:24.505Z,44.56
2022-08-05T14:56:27.759Z,44.32
2022-08-05T14:57:53.924Z,44.06
2022-08-05T14:58:55.103Z,44.08
2022-08-05T14:59:58.429Z,44.08
2022-08-05T15:01:02.142Z,44.04
2022-08-05T15:02:15.914Z,44.00
2022-08-05T15:03:19.299Z,43.96
2022-08-05T15:04:27.310Z,43.91
2022-08-05T15:06:07.341Z,43.90
2022-08-05T15:06:55.739Z,43.93
2022-08-05T15:08:12.206Z,43.94
2022-08-05T15:09:52.368Z,43.97
2022-08-05T15:10:46.258Z,43.92
2022-08-05T15:11:52.347Z,43.80
2022-08-05T15:13:03.630Z,43.70
2022-08-05T15:14:07.448Z,43.62
2022-08-05T15:15:15.302Z,43.56
2022-08-05T15:16:18.661Z,43.48
2022-08-05T15:17:46.869Z,43.48
2022-08-05T15:18:47.279Z,43.54
2022-08-05T15:19:50.313Z,43.68
2022-08-05T15:20:58.197Z,43.70
2022-08-05T15:22:11.072Z,43.77
2022-08-05T15:23:14.358Z,43.86
2022-08-05T15:24:17.639Z,43.96